Terminal Aerodrome Forecast
Issued by NWS

Home | Current Version | Previous Version | Text Only | Print | Product List | Glossary On
Versions: 1 2 3 4 5 6 7 8 9 10 11 12
516
FTUS42 TJSJ 241729
TAFJMZ
TAF
TJMZ 241729Z 2418/2518 27010KT P6SM VCTS SCT025CB BKN040
      TEMPO 2418/2421 VRB10G20KT 4SM -TSRA BKN020CB OVC050
     FM242300 07005KT P6SM FEW030 SCT050 SCT080
     FM250300 00000KT P6SM FEW090
     FM251450 08004KT P6SM SCT030
      AMD NOT SKED=

USA.gov is the U.S. government's official web portal to all federal, state and local government web resources and services.